Time;durP1;ratioP1;P1;durP2;ratioP2;P2;SDS_P1;SDS_P2;PMS_P1;PMS_P2;Temp;Humidity;BMP_temperature;BMP_pressure;BME280_temperature;BME280_humidity;BME280_pressure;Samples;Min_cycle;Max_cycle;Signal;HPM_P1;HPM_P2
2022/06/06 00:01:15;;;;;;;8.95;3.53;;;;;;;13.30;100.00;96929.03;5003490;28;20115;-65
2022/06/06 00:03:41;;;;;;;8.65;3.38;;;;;;;13.06;100.00;96940.59;5018280;28;20615;-64
2022/06/06 00:06:10;;;;;;;6.53;4.20;;;;;;;12.93;100.00;96924.34;4991372;28;20046;-64
2022/06/06 00:08:36;;;;;;;15.18;4.63;;;;;;;12.94;100.00;96922.38;5010821;28;20050;-66
2022/06/06 00:11:04;;;;;;;9.68;4.70;;;;;;;12.93;100.00;96927.09;5017901;28;20072;-66
2022/06/06 00:13:30;;;;;;;8.57;4.65;;;;;;;12.96;100.00;96917.31;5001083;28;20111;-66
2022/06/06 00:15:56;;;;;;;7.93;4.35;;;;;;;13.07;100.00;96912.72;5002915;28;20038;-66
2022/06/06 00:18:22;;;;;;;8.15;4.53;;;;;;;13.20;100.00;96916.75;4979894;28;22614;-66
2022/06/06 00:20:47;;;;;;;9.98;4.35;;;;;;;13.28;100.00;96911.34;5000627;28;20038;-67
2022/06/06 00:23:12;;;;;;;7.03;3.80;;;;;;;13.38;100.00;96905.16;5016525;28;20459;-64
2022/06/06 00:25:38;;;;;;;6.03;3.47;;;;;;;13.52;100.00;96913.53;5020829;28;20061;-66
2022/06/06 00:28:04;;;;;;;8.13;3.53;;;;;;;13.63;100.00;96910.06;5019240;28;20041;-66
2022/06/06 00:30:29;;;;;;;4.53;3.38;;;;;;;13.71;100.00;96912.50;5021945;28;20041;-65
2022/06/06 00:35:38;;;;;;;6.95;2.78;;;;;;;13.70;100.00;96910.94;5001466;28;20046;-64
2022/06/06 00:38:04;;;;;;;5.82;2.60;;;;;;;13.63;100.00;96910.88;5010494;28;20037;-65
2022/06/06 00:40:30;;;;;;;9.13;2.80;;;;;;;13.59;100.00;96912.78;5021260;28;20431;-63
2022/06/06 00:42:55;;;;;;;4.30;2.72;;;;;;;13.67;100.00;96905.41;5022568;28;20037;-63
2022/06/06 00:45:21;;;;;;;4.30;2.47;;;;;;;13.75;100.00;96898.75;5016630;28;20092;-62
2022/06/06 00:48:05;;;;;;;4.43;2.50;;;;;;;13.45;100.00;96896.97;5021643;28;20037;-63
2022/06/06 00:50:34;;;;;;;7.03;3.70;;;;;;;13.12;100.00;96893.09;5020141;28;20041;-64
2022/06/06 00:53:00;;;;;;;8.23;3.43;;;;;;;12.84;100.00;96887.31;5022062;28;20502;-63
2022/06/06 00:55:30;;;;;;;7.47;4.13;;;;;;;12.81;100.00;96892.41;5015763;28;20045;-64
2022/06/06 00:58:05;;;;;;;9.38;4.20;;;;;;;12.78;100.00;96875.88;5002814;28;20049;-64
2022/06/06 01:00:31;;;;;;;9.32;4.07;;;;;;;12.93;100.00;96890.59;5002742;28;20145;-64
2022/06/06 01:03:01;;;;;;;5.50;3.75;;;;;;;13.08;100.00;96886.00;5015970;28;20041;-64
2022/06/06 01:05:27;;;;;;;5.90;3.72;;;;;;;13.26;100.00;96877.91;4996493;28;20544;-65
2022/06/06 01:07:53;;;;;;;8.13;3.30;;;;;;;13.48;100.00;96876.16;4998601;28;20046;-64
2022/06/06 01:10:19;;;;;;;7.63;3.83;;;;;;;13.53;100.00;96868.34;4997029;28;20049;-64
2022/06/06 01:12:48;;;;;;;7.50;3.60;;;;;;;13.53;100.00;96879.34;5002085;28;20045;-64
2022/06/06 01:15:16;;;;;;;6.67;3.50;;;;;;;13.52;100.00;96872.28;4996182;28;20049;-63
2022/06/06 01:18:12;;;;;;;9.77;3.40;;;;;;;13.35;100.00;96872.91;4999992;28;20095;-66
2022/06/06 01:20:55;;;;;;;5.75;3.10;;;;;;;13.33;100.00;96875.25;4993740;28;20188;-64
2022/06/06 01:24:05;;;;;;;7.40;3.20;;;;;;;13.26;100.00;96872.41;4994310;28;20458;-64
2022/06/06 01:26:36;;;;;;;;;;;;;;;13.33;100.00;96873.28;4971130;28;20058;-64
2022/06/06 01:29:16;;;;;;;4.55;2.83;;;;;;;13.36;100.00;96871.72;4978945;28;19913;-65
2022/06/06 01:32:05;;;;;;;7.07;3.22;;;;;;;13.32;100.00;96870.91;5009523;28;20042;-64
2022/06/06 01:34:35;;;;;;;4.40;3.00;;;;;;;13.29;100.00;96869.69;5011777;28;20037;-64
2022/06/06 01:37:00;;;;;;;;;;;;;;;13.29;100.00;96866.94;5013248;28;20063;-64
2022/06/06 01:39:30;;;;;;;5.63;2.92;;;;;;;13.28;100.00;96872.81;5011485;28;20019;-64
2022/06/06 01:42:07;;;;;;;6.47;3.47;;;;;;;13.13;100.00;96878.19;5001983;28;20045;-64
2022/06/06 01:44:47;;;;;;;6.28;2.78;;;;;;;13.10;100.00;96865.19;5000862;28;20085;-65
2022/06/06 01:47:20;;;;;;;4.72;3.10;;;;;;;13.07;100.00;96870.66;5005739;28;20038;-65
2022/06/06 01:49:46;;;;;;;4.95;3.30;;;;;;;13.16;100.00;96868.38;5018060;28;20040;-64
2022/06/06 01:52:15;;;;;;;5.85;2.80;;;;;;;13.23;100.00;96873.16;5015337;28;20046;-64
2022/06/06 01:54:42;;;;;;;6.95;3.10;;;;;;;13.32;100.00;96870.91;5020416;28;20502;-63
2022/06/06 01:57:12;;;;;;;5.45;2.80;;;;;;;13.22;100.00;96875.13;4998095;28;20060;-65
2022/06/06 01:59:38;;;;;;;4.45;2.55;;;;;;;13.28;100.00;96857.09;5018006;28;20108;-64
2022/06/06 02:02:04;;;;;;;4.68;2.47;;;;;;;13.39;100.00;96860.75;5000130;28;20140;-65
2022/06/06 02:04:29;;;;;;;6.75;2.53;;;;;;;13.38;100.00;96861.94;5004456;28;20054;-64
2022/06/06 02:06:55;;;;;;;5.97;2.55;;;;;;;13.34;100.00;96850.13;5001047;28;20483;-64
2022/06/06 02:09:21;;;;;;;9.63;3.05;;;;;;;13.27;100.00;96851.97;4993604;28;20042;-65
2022/06/06 02:11:46;;;;;;;7.70;2.80;;;;;;;13.27;100.00;96840.97;5009661;28;20124;-66
2022/06/06 02:14:11;;;;;;;6.32;2.65;;;;;;;13.33;100.00;96832.03;5008685;28;20120;-65
2022/06/06 02:16:38;;;;;;;6.35;2.88;;;;;;;13.29;100.00;96836.69;5013972;28;20069;-65
2022/06/06 02:19:05;;;;;;;7.03;2.75;;;;;;;13.29;100.00;96835.88;5009692;28;20063;-64
2022/06/06 02:21:31;;;;;;;9.00;3.08;;;;;;;13.31;100.00;96836.34;5021912;28;20057;-65
2022/06/06 02:23:56;;;;;;;7.93;2.88;;;;;;;13.32;100.00;96838.69;5029035;28;20041;-63
2022/06/06 02:26:22;;;;;;;6.45;2.65;;;;;;;13.29;100.00;96836.69;5000094;28;20542;-62
2022/06/06 02:28:48;;;;;;;6.80;2.78;;;;;;;13.22;100.00;96835.81;5001312;28;20103;-63
2022/06/06 02:31:13;;;;;;;6.18;2.45;;;;;;;13.20;100.00;96827.97;4994510;28;20049;-62
2022/06/06 02:33:39;;;;;;;6.35;3.05;;;;;;;13.09;100.00;96827.06;5012247;28;20057;-65
2022/06/06 02:36:05;;;;;;;8.45;2.80;;;;;;;12.90;100.00;96833.59;4998084;28;20052;-66
2022/06/06 02:38:32;;;;;;;5.63;3.10;;;;;;;12.91;100.00;96832.41;5016826;28;20421;-64
2022/06/06 02:41:10;;;;;;;9.18;3.30;;;;;;;12.90;100.00;96830.84;5019023;28;20040;-63
2022/06/06 02:43:42;;;;;;;4.88;3.63;;;;;;;12.65;100.00;96825.91;5013297;28;20037;-65
2022/06/06 02:46:09;;;;;;;7.00;3.53;;;;;;;12.39;100.00;96822.09;5012589;28;20115;-63
2022/06/06 02:48:35;;;;;;;14.75;4.47;;;;;;;12.29;100.00;96835.72;4994848;28;20052;-64
2022/06/06 02:51:02;;;;;;;9.50;5.25;;;;;;;12.16;100.00;96833.19;4999377;28;20042;-64
2022/06/06 02:53:28;;;;;;;9.15;4.47;;;;;;;12.13;100.00;96833.16;4994830;28;20188;-63
2022/06/06 02:55:54;;;;;;;5.93;3.85;;;;;;;12.07;100.00;96834.66;4998959;28;20038;-63
2022/06/06 02:58:21;;;;;;;7.53;3.78;;;;;;;12.13;100.00;96831.19;4996173;28;20100;-65
2022/06/06 03:00:48;;;;;;;10.80;3.72;;;;;;;12.25;100.00;96835.66;5013246;28;20042;-63
2022/06/06 03:03:14;;;;;;;7.35;3.65;;;;;;;12.36;100.00;96830.28;4995111;28;20417;-64
2022/06/06 03:05:52;;;;;;;7.30;3.35;;;;;;;12.45;100.00;96841.00;4998918;28;20049;-64
2022/06/06 03:08:34;;;;;;;5.03;3.20;;;;;;;12.48;100.00;96841.03;4988254;28;20049;-64
2022/06/06 03:11:28;;;;;;;9.40;3.40;;;;;;;12.57;100.00;96836.03;5000795;28;20038;-64
2022/06/06 03:14:22;;;;;;;3.53;2.38;;;;;;;12.66;100.00;96837.66;4999321;28;20132;-64
2022/06/06 03:23:29;;;;;;;7.28;2.50;;;;;;;12.49;100.00;96837.09;5014883;28;20069;-64
2022/06/06 03:26:15;;;;;;;10.52;3.17;;;;;;;12.45;100.00;96841.00;5002036;28;20112;-64
2022/06/06 03:28:57;;;;;;;7.32;2.70;;;;;;;12.37;100.00;96840.09;5012240;28;20456;-65
2022/06/06 03:31:38;;;;;;;3.80;2.47;;;;;;;12.43;100.00;96841.38;4995884;28;20050;-63
2022/06/06 03:34:12;;;;;;;5.63;2.30;;;;;;;12.55;100.00;96843.03;4996866;28;20125;-66
2022/06/06 03:36:46;;;;;;;3.05;2.17;;;;;;;12.28;100.00;96834.94;5006007;28;20053;-65
2022/06/06 03:39:28;;;;;;;3.97;2.65;;;;;;;11.80;100.00;96840.94;4997190;28;20049;-64
2022/06/06 03:42:14;;;;;;;6.65;3.25;;;;;;;11.86;100.00;96833.97;4989076;28;20068;-63
2022/06/06 03:44:49;;;;;;;6.05;2.88;;;;;;;12.01;100.00;96840.47;5000116;28;20046;-62
2022/06/06 03:47:17;;;;;;;8.23;2.65;;;;;;;11.92;100.00;96845.47;4998380;28;20046;-62
2022/06/06 03:50:00;;;;;;;4.45;2.95;;;;;;;11.92;100.00;96844.66;5002289;28;20044;-61
2022/06/06 03:52:44;;;;;;;6.25;2.50;;;;;;;12.09;100.00;96849.59;4999314;28;20046;-60
2022/06/06 03:55:41;;;;;;;7.30;2.50;;;;;;;12.39;100.00;96846.81;4998591;28;20482;-63
2022/06/06 03:58:10;;;;;;;4.15;2.38;;;;;;;12.56;100.00;96850.13;5005755;28;20492;-63
2022/06/06 04:00:38;;;;;;;5.45;2.72;;;;;;;12.62;100.00;96852.19;5003931;28;20046;-64
2022/06/06 04:03:05;;;;;;;5.03;2.70;;;;;;;12.76;100.00;96845.25;5000082;28;20041;-64
2022/06/06 04:05:35;;;;;;;6.78;2.30;;;;;;;12.81;100.00;96850.41;5001646;28;20459;-64
2022/06/06 04:08:00;;;;;;;5.22;2.53;;;;;;;12.78;100.00;96856.63;5003897;28;20058;-65
2022/06/06 04:10:38;;;;;;;5.28;2.65;;;;;;;12.81;100.00;96861.38;4997149;28;20081;-65
2022/06/06 04:13:29;;;;;;;5.68;2.78;;;;;;;12.76;100.00;96858.97;5003630;28;20133;-65
2022/06/06 04:16:18;;;;;;;4.43;3.10;;;;;;;12.85;100.00;96851.22;5002443;28;20049;-64
2022/06/06 04:18:58;;;;;;;7.83;2.67;;;;;;;13.19;100.00;96860.16;4996118;28;20585;-63
2022/06/06 04:21:38;;;;;;;5.95;2.22;;;;;;;13.54;100.00;96864.41;4997049;28;20509;-64
2022/06/06 04:24:28;;;;;;;3.35;2.35;;;;;;;13.90;100.00;96861.09;5013432;28;20419;-65
2022/06/06 04:27:28;;;;;;;5.22;2.13;;;;;;;14.17;100.00;96871.88;5003298;28;20062;-64
2022/06/06 04:30:04;;;;;;;3.15;2.22;;;;;;;14.41;100.00;96862.16;5001325;28;20536;-64
2022/06/06 04:32:43;;;;;;;4.78;2.00;;;;;;;14.66;100.00;96865.03;5000016;28;20058;-64
2022/06/06 04:35:11;;;;;;;4.95;1.98;;;;;;;14.83;100.00;96857.97;4972662;28;20446;-62
2022/06/06 04:38:04;;;;;;;2.75;1.90;;;;;;;15.06;100.00;96863.13;5016170;28;20041;-64
2022/06/06 04:40:38;;;;;;;2.10;1.70;;;;;;;14.61;100.00;96862.63;5018291;28;20045;-64
2022/06/06 04:43:12;;;;;;;11.77;2.53;;;;;;;13.76;100.00;96861.81;5020573;28;20041;-65
2022/06/06 04:45:57;;;;;;;4.32;2.38;;;;;;;13.52;100.00;96855.75;5005141;28;20054;-64
2022/06/06 04:48:24;;;;;;;5.47;2.42;;;;;;;13.85;100.00;96848.50;4992179;28;20569;-62
2022/06/06 04:50:50;;;;;;;5.55;2.55;;;;;;;13.93;100.00;96852.06;5000698;28;20045;-61
2022/06/06 04:53:23;;;;;;;5.18;2.70;;;;;;;15.02;100.00;96856.81;4995079;28;20451;-62
2022/06/06 04:55:50;;;;;;;5.97;2.30;;;;;;;16.17;100.00;96862.25;5002087;28;20042;-65
2022/06/06 04:58:18;;;;;;;3.83;1.95;;;;;;;15.45;100.00;96859.59;4997970;28;20061;-66
2022/06/06 05:00:45;;;;;;;2.35;1.73;;;;;;;16.70;100.00;96860.47;5001982;28;20503;-65
2022/06/06 05:03:10;;;;;;;3.67;1.83;;;;;;;16.32;100.00;96857.47;4996729;28;20048;-65
2022/06/06 05:06:22;;;;;;;1.83;1.25;;;;;;;19.45;100.00;96849.69;4998526;28;20152;-65
2022/06/06 05:09:14;;;;;;;4.25;1.20;;;;;;;22.29;85.70;96854.72;5000319;28;20038;-65
2022/06/06 05:12:07;;;;;;;1.85;0.90;;;;;;;23.50;73.80;96854.31;5001182;28;20038;-63
2022/06/06 05:15:15;;;;;;;2.17;1.13;;;;;;;25.27;62.56;96870.03;4990361;28;20041;-65
2022/06/06 05:18:08;;;;;;;9.32;0.98;;;;;;;26.33;57.47;96865.28;5002059;28;20053;-64
2022/06/06 05:21:08;;;;;;;2.47;0.90;;;;;;;26.72;54.91;96867.59;5015809;28;20053;-66
2022/06/06 05:23:51;;;;;;;1.98;1.15;;;;;;;26.52;54.40;96871.66;5026822;28;20553;-62
2022/06/06 05:26:48;;;;;;;5.85;1.30;;;;;;;26.81;53.66;96868.38;4997306;28;20135;-64
2022/06/06 05:29:46;;;;;;;1.80;1.10;;;;;;;27.97;51.44;96864.47;4971473;28;20491;-65
2022/06/06 05:32:37;;;;;;;2.43;1.10;;;;;;;27.37;51.57;96879.47;4969874;28;20505;-65
2022/06/06 05:35:17;;;;;;;2.30;1.23;;;;;;;26.46;53.16;96882.75;4978336;28;20515;-65
2022/06/06 05:38:09;;;;;;;4.65;1.25;;;;;;;24.69;60.28;96877.03;4995441;28;20483;-65
2022/06/06 05:40:38;;;;;;;3.47;1.50;;;;;;;25.50;59.05;96877.13;4995659;28;20046;-65
2022/06/06 05:43:09;;;;;;;3.40;1.20;;;;;;;25.42;61.73;96880.69;4998664;28;20034;-65
2022/06/06 05:45:44;;;;;;;6.05;1.42;;;;;;;26.65;58.70;96886.34;5000973;28;20499;-64
2022/06/06 05:48:40;;;;;;;3.38;1.02;;;;;;;27.32;54.42;96888.56;4994124;28;20041;-64
2022/06/06 05:51:20;;;;;;;6.03;1.35;;;;;;;27.05;55.51;96895.81;4994539;28;20093;-66
2022/06/06 05:54:26;;;;;;;1.52;1.00;;;;;;;28.17;49.47;96894.06;5002296;28;20038;-64
2022/06/06 05:57:23;;;;;;;2.70;1.13;;;;;;;29.38;47.54;96899.38;5000158;28;20502;-64
2022/06/06 06:00:06;;;;;;;2.97;1.45;;;;;;;29.30;47.53;96908.22;5010544;28;20503;-63
2022/06/06 06:02:57;;;;;;;3.53;1.83;;;;;;;27.23;53.10;96909.81;5003926;28;20108;-66
2022/06/06 06:06:00;;;;;;;5.53;1.65;;;;;;;25.21;60.81;96913.09;4990828;28;20662;-67
2022/06/06 06:08:47;;;;;;;4.55;1.63;;;;;;;24.66;63.87;96899.56;4979017;28;20046;-66
2022/06/06 06:11:19;;;;;;;2.92;1.70;;;;;;;24.01;67.25;96907.41;4977046;28;20042;-66
2022/06/06 06:13:56;;;;;;;11.40;1.70;;;;;;;23.58;69.39;96901.16;4990450;28;20072;-66
2022/06/06 06:16:24;;;;;;;5.45;2.10;;;;;;;23.72;70.84;96911.13;4993749;28;20053;-66
2022/06/06 06:19:01;;;;;;;6.03;2.30;;;;;;;23.55;69.30;96909.66;5000029;28;20502;-68
2022/06/06 06:21:30;;;;;;;5.90;2.20;;;;;;;23.09;72.94;96916.25;5021534;28;20045;-66
2022/06/06 06:24:31;;;;;;;3.65;2.17;;;;;;;22.49;74.75;96913.16;5008520;28;20848;-66
2022/06/06 06:26:58;;;;;;;4.22;2.58;;;;;;;22.19;78.42;96911.56;5006815;28;20057;-66
2022/06/06 06:29:24;;;;;;;5.40;3.08;;;;;;;21.04;87.28;96919.84;5007909;28;20533;-65
2022/06/06 06:32:08;;;;;;;3.65;2.33;;;;;;;21.30;85.55;96921.66;5003430;28;20042;-65
2022/06/06 06:34:39;;;;;;;6.90;2.58;;;;;;;21.13;84.94;96928.41;5004402;28;20052;-66
2022/06/06 06:37:34;;;;;;;6.20;2.70;;;;;;;21.66;83.82;96926.44;4997965;28;20030;-65
2022/06/06 06:40:29;;;;;;;5.63;2.25;;;;;;;22.24;79.35;96934.13;5011338;28;21591;-64
2022/06/06 06:43:02;;;;;;;7.32;2.95;;;;;;;21.81;81.04;96934.44;4983207;28;20407;-65
2022/06/06 06:45:42;;;;;;;5.43;2.92;;;;;;;21.36;85.13;96936.63;5001293;28;20045;-65
2022/06/06 06:48:27;;;;;;;;;;;;;;;20.99;89.16;96948.97;5014743;28;20092;-68
2022/06/06 06:51:22;;;;;;;4.72;2.70;;;;;;;20.31;92.12;96939.97;5001978;28;20397;-67
2022/06/06 06:54:15;;;;;;;4.15;2.33;;;;;;;20.54;93.90;96946.69;5000963;28;20029;-67
2022/06/06 06:57:02;;;;;;;7.78;2.80;;;;;;;20.41;92.70;96952.09;4999094;28;20222;-67
2022/06/06 06:59:36;;;;;;;8.50;3.00;;;;;;;20.79;89.67;96954.56;5010649;28;20038;-67
2022/06/06 07:09:09;;;;;;;4.88;2.38;;;;;;;22.17;81.42;96951.06;5011379;28;20078;-65
2022/06/06 07:11:44;;;;;;;6.40;2.17;;;;;;;23.26;74.46;96952.47;4996450;28;20135;-65
2022/06/06 07:14:22;;;;;;;7.22;2.75;;;;;;;23.01;73.66;96953.19;4995201;28;20064;-64
2022/06/06 07:16:55;;;;;;;5.05;1.88;;;;;;;22.74;74.67;96945.97;4997807;28;20064;-64
2022/06/06 07:19:29;;;;;;;6.93;2.42;;;;;;;22.02;79.33;96950.66;4991687;28;20053;-64
2022/06/06 07:21:58;;;;;;;4.60;1.98;;;;;;;21.55;81.73;96954.56;4990861;28;20041;-64
2022/06/06 07:24:23;;;;;;;3.70;2.10;;;;;;;21.32;82.08;96955.44;5010107;28;20996;-64
2022/06/06 07:26:50;;;;;;;6.40;2.47;;;;;;;21.23;82.80;96955.25;5001326;28;20124;-64
2022/06/06 07:29:18;;;;;;;4.38;2.22;;;;;;;22.56;77.33;96952.03;4995137;28;20040;-64
2022/06/06 07:31:59;;;;;;;4.80;2.28;;;;;;;23.11;72.19;96945.75;4999517;28;20103;-63
2022/06/06 07:34:27;;;;;;;3.83;2.10;;;;;;;23.04;71.30;96949.50;4994036;28;20608;-64
2022/06/06 07:37:23;;;;;;;4.45;2.17;;;;;;;22.43;73.11;96957.56;4998003;28;20065;-64
2022/06/06 07:40:00;;;;;;;5.32;2.55;;;;;;;22.05;75.84;96951.75;4999466;28;20422;-65
2022/06/06 07:42:44;;;;;;;7.30;2.17;;;;;;;22.05;77.15;96957.34;5015294;28;20052;-65
2022/06/06 07:45:16;;;;;;;9.02;2.75;;;;;;;;;;5014818;28;20046;-65
2022/06/06 07:48:11;;;;;;;7.15;2.60;;;;;;;22.05;75.14;96952.53;4999670;28;20038;-65
2022/06/06 07:50:49;;;;;;;5.35;2.10;;;;;;;21.72;80.90;96954.56;4992084;28;20053;-64
2022/06/06 07:53:52;;;;;;;3.90;2.13;;;;;;;21.67;79.62;96946.72;4993340;28;20132;-64
2022/06/06 07:56:43;;;;;;;3.83;1.80;;;;;;;21.85;79.90;96954.66;4988034;28;20034;-65
2022/06/06 07:59:38;;;;;;;5.45;2.10;;;;;;;21.75;79.45;96945.31;4988668;28;20133;-64
2022/06/06 08:02:18;;;;;;;4.60;2.72;;;;;;;21.95;73.99;96948.81;4994652;28;20069;-65
2022/06/06 08:05:00;;;;;;;5.13;2.25;;;;;;;22.41;73.64;96945.28;4977775;28;20053;-64
2022/06/06 08:07:53;;;;;;;6.10;2.10;;;;;;;22.60;72.74;96946.34;4993476;28;20520;-64
2022/06/06 08:10:39;;;;;;;4.90;2.25;;;;;;;22.71;72.20;96947.63;4989281;28;20057;-68
2022/06/06 08:13:17;;;;;;;3.55;1.92;;;;;;;23.59;70.40;96936.28;4985638;28;20839;-64
2022/06/06 08:15:55;;;;;;;5.75;2.15;;;;;;;23.99;65.82;96946.25;4998161;28;20135;-62
2022/06/06 08:18:50;;;;;;;5.70;2.40;;;;;;;23.93;66.80;96937.63;4991316;28;20057;-64
2022/06/06 08:21:34;;;;;;;7.45;2.88;;;;;;;23.67;65.15;96940.41;5006760;28;20391;-65
2022/06/06 08:24:02;;;;;;;5.45;2.35;;;;;;;23.25;67.18;96940.53;5005706;28;20515;-65
2022/06/06 08:26:30;;;;;;;6.65;2.17;;;;;;;22.81;69.29;96936.59;5000715;28;20109;-63
2022/06/06 08:28:57;;;;;;;8.23;2.70;;;;;;;22.29;72.85;96944.00;5004441;28;20058;-64
2022/06/06 08:31:23;;;;;;;5.55;2.40;;;;;;;22.58;71.24;96943.22;4996861;28;20159;-64
2022/06/06 08:33:48;;;;;;;5.65;2.10;;;;;;;22.65;72.40;96941.03;4999100;28;20850;-64
2022/06/06 08:36:35;;;;;;;4.68;2.42;;;;;;;23.83;65.86;96939.53;4996111;28;20045;-64
2022/06/06 08:39:19;;;;;;;5.78;2.53;;;;;;;23.58;66.99;96937.50;5000128;28;20038;-64
2022/06/06 08:41:57;;;;;;;3.63;2.30;;;;;;;23.97;67.46;96937.53;5002998;28;20034;-64
2022/06/06 08:44:47;;;;;;;5.20;2.33;;;;;;;24.27;63.18;96929.69;4996702;28;20514;-63
2022/06/06 08:47:50;;;;;;;7.13;2.55;;;;;;;24.22;62.39;96931.06;4991730;28;20100;-63
2022/06/06 08:53:21;;;;;;;6.63;2.35;;;;;;;23.90;61.68;96932.94;4998511;28;20072;-65
2022/06/06 08:56:14;;;;;;;3.78;2.05;;;;;;;23.88;62.08;96929.00;4998466;28;20054;-64
2022/06/06 08:59:12;;;;;;;3.70;2.03;;;;;;;24.00;62.15;96925.41;5005117;28;20051;-64
2022/06/06 09:01:49;;;;;;;5.22;2.40;;;;;;;24.32;60.90;96926.34;5016788;28;20070;-64
2022/06/06 09:04:48;;;;;;;5.78;2.03;;;;;;;24.48;61.49;96914.97;5008812;28;20205;-64
2022/06/06 09:07:35;;;;;;;3.92;2.25;;;;;;;25.07;57.79;96911.66;4996792;28;20273;-62
2022/06/06 09:10:25;;;;;;;3.67;1.90;;;;;;;24.90;58.70;96911.06;5001176;28;20044;-63
2022/06/06 09:13:04;;;;;;;3.72;2.10;;;;;;;25.17;57.84;96916.84;4997224;28;20092;-64
2022/06/06 09:15:32;;;;;;;6.67;3.20;;;;;;;25.63;55.48;96912.72;4993322;28;20048;-63
2022/06/06 09:18:04;;;;;;;6.72;2.17;;;;;;;25.30;54.52;96916.78;5001379;28;20285;-64
2022/06/06 09:21:05;;;;;;;2.20;1.60;;;;;;;25.58;51.01;96907.69;5018584;28;20049;-64
2022/06/06 09:23:36;;;;;;;3.38;1.90;;;;;;;25.45;51.98;96897.38;5014921;28;20049;-64
2022/06/06 09:26:37;;;;;;;3.38;2.08;;;;;;;25.25;52.17;96911.00;5000637;28;20042;-65
2022/06/06 09:29:40;;;;;;;3.38;1.33;;;;;;;25.16;49.92;96904.06;4999799;28;20042;-64
2022/06/06 09:32:30;;;;;;;2.47;1.42;;;;;;;25.16;49.26;96904.06;4962336;28;20134;-64
2022/06/06 09:35:26;;;;;;;5.30;1.65;;;;;;;25.24;50.95;96903.78;4963395;28;20043;-61
2022/06/06 09:38:20;;;;;;;4.18;1.70;;;;;;;24.42;52.62;96892.38;4979334;28;20145;-62
2022/06/06 09:41:03;;;;;;;5.15;1.70;;;;;;;24.91;54.07;96898.63;5003260;28;20132;-63
2022/06/06 09:43:33;;;;;;;4.38;1.73;;;;;;;25.06;51.46;96896.84;5006588;28;20110;-64
2022/06/06 09:45:58;;;;;;;3.00;1.63;;;;;;;25.23;50.95;96893.81;5014835;28;20081;-64
2022/06/06 09:48:38;;;;;;;5.18;1.83;;;;;;;25.48;51.06;96884.44;4998139;28;20084;-64
2022/06/06 09:51:25;;;;;;;3.92;1.92;;;;;;;26.16;48.17;96886.50;4996077;28;20038;-64
2022/06/06 10:00:22;;;;;;;4.00;1.67;;;;;;;25.62;47.97;96878.25;5006978;28;20042;-63
2022/06/06 10:02:56;;;;;;;4.60;1.70;;;;;;;25.86;48.35;96874.91;5005626;28;20100;-62
2022/06/06 10:05:49;;;;;;;21.35;13.68;;;;;;;25.68;49.98;96887.63;4996767;28;20053;-64
2022/06/06 10:08:27;;;;;;;3.90;1.88;;;;;;;26.14;49.02;96881.34;4997266;28;20195;-64
2022/06/06 10:11:11;;;;;;;6.15;1.65;;;;;;;25.72;50.92;96879.84;5005439;28;20117;-64
2022/06/06 10:13:52;;;;;;;4.20;1.60;;;;;;;26.23;47.56;96874.94;5000105;28;20049;-63
2022/06/06 10:16:34;;;;;;;4.68;2.00;;;;;;;26.20;46.45;96871.06;4995224;28;20048;-63
2022/06/06 10:19:18;;;;;;;2.65;1.30;;;;;;;25.60;48.70;96869.53;5000116;28;20045;-63
2022/06/06 10:22:01;;;;;;;3.70;1.50;;;;;;;25.97;49.73;96871.66;5007459;28;20044;-63
2022/06/06 10:24:46;;;;;;;4.85;1.75;;;;;;;26.75;45.53;96855.44;5016830;28;20049;-64
2022/06/06 10:27:42;;;;;;;3.65;1.50;;;;;;;26.56;45.60;96871.50;5000904;28;20125;-64
2022/06/06 10:30:38;;;;;;;2.72;1.70;;;;;;;25.74;48.20;96856.94;4999641;28;20076;-64
2022/06/06 10:33:16;;;;;;;4.07;1.48;;;;;;;25.37;50.71;96859.63;5002568;28;20038;-65
2022/06/06 10:36:11;;;;;;;3.25;1.77;;;;;;;25.25;51.58;96858.53;5002218;28;20513;-63
2022/06/06 10:39:01;;;;;;;4.28;2.42;;;;;;;24.91;52.81;96862.22;5001619;28;20133;-63
2022/06/06 10:41:57;;;;;;;2.92;1.77;;;;;;;25.18;51.66;96859.53;4995051;28;20133;-62
2022/06/06 10:44:43;;;;;;;2.72;1.48;;;;;;;26.03;48.50;96856.53;4990438;28;20527;-64
2022/06/06 10:47:53;;;;;;;3.50;1.30;;;;;;;26.62;46.20;96847.19;4995295;28;20058;-63
2022/06/06 10:50:29;;;;;;;6.43;1.75;;;;;;;24.92;49.39;96846.97;4994550;28;20060;-63
2022/06/06 10:53:00;;;;;;;3.58;1.45;;;;;;;25.94;49.03;96840.47;4999996;28;20042;-62
2022/06/06 10:55:43;;;;;;;2.92;1.60;;;;;;;25.04;51.47;96845.31;4995068;28;20121;-63
2022/06/06 10:58:29;;;;;;;4.18;1.83;;;;;;;25.68;51.07;96839.19;4994767;28;20058;-63
2022/06/06 11:01:11;;;;;;;5.47;2.03;;;;;;;26.08;48.21;96832.69;4996169;28;20671;-63
2022/06/06 11:03:57;;;;;;;3.92;2.40;;;;;;;26.17;49.03;96829.88;4993333;28;20049;-62
2022/06/06 11:06:46;;;;;;;6.78;2.00;;;;;;;26.59;45.70;96822.81;4992992;28;20095;-64
2022/06/06 11:09:26;;;;;;;6.20;1.70;;;;;;;27.09;45.47;96821.28;4990145;28;20368;-64
2022/06/06 11:12:22;;;;;;;3.70;1.63;;;;;;;27.10;45.94;96822.09;5000639;28;20037;-63
2022/06/06 11:14:48;;;;;;;2.80;1.70;;;;;;;26.42;47.31;96822.38;4995579;28;20153;-63
2022/06/06 11:17:44;;;;;;;3.33;1.40;;;;;;;26.11;48.09;96820.53;4993239;28;20075;-63
2022/06/06 11:20:40;;;;;;;5.07;1.50;;;;;;;25.83;50.11;96825.31;4991944;28;20099;-64
2022/06/06 11:23:18;;;;;;;6.97;1.90;;;;;;;26.22;46.86;96820.06;5009684;28;20149;-64
2022/06/06 11:26:09;;;;;;;4.80;1.80;;;;;;;26.32;46.21;96824.41;5004563;28;20121;-63
2022/06/06 11:28:53;;;;;;;7.20;2.10;;;;;;;25.78;47.84;96823.91;4991900;28;20041;-63
2022/06/06 11:31:46;;;;;;;4.45;1.83;;;;;;;26.39;46.37;96804.44;4995234;28;20045;-64
2022/06/06 11:34:32;;;;;;;2.88;1.67;;;;;;;26.31;47.47;96814.44;4998967;28;20038;-64
2022/06/06 11:37:16;;;;;;;3.40;1.70;;;;;;;26.38;48.40;96802.09;5001086;28;20076;-63
2022/06/06 11:40:06;;;;;;;4.90;1.70;;;;;;;26.72;47.45;96800.97;4998313;28;20050;-62
2022/06/06 11:43:09;;;;;;;3.75;1.75;;;;;;;26.42;49.07;96791.50;4999012;28;20049;-63
2022/06/06 11:45:53;;;;;;;3.30;1.55;;;;;;;26.46;47.82;96790.06;5010375;28;20054;-63
2022/06/06 11:48:21;;;;;;;3.38;1.65;;;;;;;26.59;46.09;96795.50;4996540;28;20086;-63
2022/06/06 11:51:21;;;;;;;3.45;1.67;;;;;;;26.65;45.48;96784.44;4999373;28;20153;-63
2022/06/06 11:54:41;;;;;;;3.78;1.50;;;;;;;26.80;45.43;96785.34;4997883;28;20078;-62
2022/06/06 11:57:07;;;;;;;3.55;1.73;;;;;;;26.82;44.53;96780.00;4990973;28;20046;-64
2022/06/06 11:59:35;;;;;;;4.80;1.85;;;;;;;26.82;45.87;96777.22;4999482;28;20048;-63
2022/06/06 12:02:25;;;;;;;2.40;1.35;;;;;;;27.00;45.97;96784.00;5001686;28;20041;-65
2022/06/06 12:05:23;;;;;;;4.30;1.75;;;;;;;27.62;43.90;96777.78;4973238;28;20107;-63
2022/06/06 12:08:19;;;;;;;3.92;1.60;;;;;;;27.46;44.20;96767.72;4995963;28;20046;-62
2022/06/06 12:11:07;;;;;;;4.18;2.10;;;;;;;27.51;42.83;96763.44;4999041;28;20133;-64
2022/06/06 12:14:11;;;;;;;3.45;1.60;;;;;;;27.27;43.39;96767.03;5003310;28;20057;-65
2022/06/06 12:16:58;;;;;;;3.10;1.58;;;;;;;27.32;43.73;96765.63;4995743;28;20553;-64
2022/06/06 12:19:51;;;;;;;5.43;1.90;;;;;;;26.82;44.37;96765.97;4998763;28;20041;-62
2022/06/06 12:22:38;;;;;;;4.10;2.00;;;;;;;26.92;45.42;96769.53;4989873;28;20022;-64
2022/06/06 12:25:22;;;;;;;5.20;1.95;;;;;;;25.98;48.30;96758.16;4997537;28;20137;-65
2022/06/06 12:28:22;;;;;;;6.60;2.33;;;;;;;26.36;46.06;96756.88;5002000;28;20668;-64
2022/06/06 12:31:09;;;;;;;6.82;1.77;;;;;;;26.26;45.99;96753.31;5001903;28;20398;-63
2022/06/06 12:33:37;;;;;;;3.35;1.98;;;;;;;26.44;45.30;96747.66;4995987;28;20042;-63
2022/06/06 12:36:15;;;;;;;8.52;2.80;;;;;;;26.62;46.14;96746.84;5001467;28;20038;-64
2022/06/06 12:38:51;;;;;;;3.70;1.95;;;;;;;26.58;45.63;96748.22;5010246;28;20453;-64
2022/06/06 12:41:28;;;;;;;5.57;1.70;;;;;;;26.41;46.17;96740.16;4997346;28;20112;-64
2022/06/06 12:43:53;;;;;;;4.28;1.80;;;;;;;26.47;45.43;96738.28;5001909;28;20132;-63
2022/06/06 12:46:42;;;;;;;4.03;1.67;;;;;;;27.00;45.56;96730.63;4997966;28;20049;-63
2022/06/06 12:49:34;;;;;;;5.90;1.70;;;;;;;26.23;46.62;96726.94;4996396;28;20042;-64
2022/06/06 12:52:22;;;;;;;3.00;1.60;;;;;;;26.22;47.95;96719.03;5009919;28;20099;-65
2022/06/06 12:55:32;;;;;;;2.75;1.50;;;;;;;26.02;46.96;96717.50;5004131;28;20045;-63